Time;durP1;ratioP1;P1;durP2;ratioP2;P2;SDS_P1;SDS_P2;PMS_P1;PMS_P2;Temp;Humidity;BMP_temperature;BMP_pressure;BME280_temperature;BME280_humidity;BME280_pressure;Samples;Min_cycle;Max_cycle;Signal;HPM_P1;HPM_P2
2022/02/20 00:01:18;;;;;;;6.40;2.60;;;;;;;;;;5012883;28;20026;-74
2022/02/20 00:03:44;;;;;;;4.63;2.38;;;;;;;;;;5009269;28;20065;-74
2022/02/20 00:06:10;;;;;;;4.03;2.05;;;;;;;;;;5012886;28;20030;-75
2022/02/20 00:08:36;;;;;;;5.55;2.35;;;;;;;;;;5021016;28;20041;-72
2022/02/20 00:11:03;;;;;;;4.43;2.20;;;;;;;;;;5012825;28;20390;-74
2022/02/20 00:13:29;;;;;;;4.70;2.20;;;;;;;;;;5013703;28;20030;-73
2022/02/20 00:15:57;;;;;;;4.95;2.08;;;;;;;;;;5016307;28;20040;-72
2022/02/20 00:18:24;;;;;;;4.00;2.05;;;;;;;;;;5020999;28;20164;-75
2022/02/20 00:20:50;;;;;;;5.90;2.20;;;;;;;;;;5002377;28;20061;-75
2022/02/20 00:23:16;;;;;;;5.22;2.20;;;;;;;;;;5015782;28;20383;-74
2022/02/20 00:25:42;;;;;;;6.93;2.45;;;;;;;;;;5016374;28;20084;-73
2022/02/20 00:28:08;;;;;;;6.75;2.30;;;;;;;;;;5015498;28;20024;-74
2022/02/20 00:30:35;;;;;;;5.35;2.17;;;;;;;;;;4999752;28;20029;-75
2022/02/20 00:33:01;;;;;;;3.67;2.05;;;;;;;;;;5016194;28;20030;-74
2022/02/20 00:35:32;;;;;;;4.53;2.00;;;;;;;;;;5015137;28;20503;-74
2022/02/20 00:37:59;;;;;;;2.80;1.92;;;;;;;;;;5018542;28;20038;-75
2022/02/20 00:40:27;;;;;;;4.93;2.15;;;;;;;;;;4996879;28;20037;-73
2022/02/20 00:42:53;;;;;;;6.57;1.98;;;;;;;;;;5014739;28;20033;-75
2022/02/20 00:45:19;;;;;;;3.38;2.10;;;;;;;;;;5015505;28;20029;-74
2022/02/20 00:47:45;;;;;;;5.50;2.45;;;;;;;;;;5023618;28;20065;-74
2022/02/20 00:50:12;;;;;;;7.65;2.22;;;;;;;;;;5016162;28;20022;-73
2022/02/20 00:52:38;;;;;;;5.90;2.38;;;;;;;;;;5015530;28;20065;-73
2022/02/20 00:55:04;;;;;;;4.70;2.42;;;;;;;;;;5016085;28;20021;-74
2022/02/20 00:57:30;;;;;;;5.53;2.28;;;;;;;;;;5022639;28;20034;-74
2022/02/20 00:59:56;;;;;;;3.15;2.00;;;;;;;;;;5016408;28;20036;-74
2022/02/20 01:02:22;;;;;;;4.38;2.00;;;;;;;;;;5015279;28;20053;-74
2022/02/20 01:04:54;;;;;;;3.83;2.08;;;;;;;;;;5020713;28;20029;-74
2022/02/20 01:07:26;;;;;;;3.28;2.00;;;;;;;;;;4997154;28;20068;-73
2022/02/20 01:09:52;;;;;;;4.85;2.30;;;;;;;;;;5015219;28;20030;-73
2022/02/20 01:12:18;;;;;;;2.75;1.92;;;;;;;;;;5014423;28;20033;-74
2022/02/20 01:14:45;;;;;;;6.35;2.17;;;;;;;;;;4997008;28;20033;-74
2022/02/20 01:17:11;;;;;;;7.47;2.40;;;;;;;;;;5015266;28;20033;-74
2022/02/20 01:19:38;;;;;;;5.20;2.42;;;;;;;;;;5015338;28;20476;-74
2022/02/20 01:22:06;;;;;;;3.35;2.20;;;;;;;;;;5018939;28;20037;-74
2022/02/20 01:24:33;;;;;;;6.75;2.63;;;;;;;;;;4980425;28;20034;-74
2022/02/20 01:27:00;;;;;;;6.07;2.30;;;;;;;;;;5007221;28;20044;-72
2022/02/20 01:29:27;;;;;;;6.80;2.50;;;;;;;;;;4998218;28;20390;-74
2022/02/20 01:31:54;;;;;;;4.03;2.40;;;;;;;;;;4991069;28;20449;-74
2022/02/20 01:34:21;;;;;;;5.82;2.30;;;;;;;;;;5014660;28;20065;-73
2022/02/20 01:36:47;;;;;;;6.18;2.45;;;;;;;;;;5017785;28;20026;-74
2022/02/20 01:39:13;;;;;;;3.65;2.38;;;;;;;;;;5010713;28;20046;-74
2022/02/20 01:41:39;;;;;;;5.40;2.10;;;;;;;;;;5014244;28;20523;-72
2022/02/20 01:44:06;;;;;;;6.50;2.42;;;;;;;;;;5018444;28;20033;-74
2022/02/20 01:46:33;;;;;;;5.70;2.47;;;;;;;;;;5015567;28;20034;-74
2022/02/20 01:48:59;;;;;;;3.65;2.03;;;;;;;;;;5014648;28;20065;-74
2022/02/20 01:51:27;;;;;;;5.15;2.10;;;;;;;;;;5018830;28;20483;-74
2022/02/20 01:53:54;;;;;;;4.93;2.30;;;;;;;;;;5007065;28;20071;-74
2022/02/20 01:56:20;;;;;;;3.88;2.28;;;;;;;;;;4995087;28;20026;-74
2022/02/20 01:58:46;;;;;;;3.88;2.30;;;;;;;;;;5019245;28;20038;-74
2022/02/20 02:01:12;;;;;;;3.53;2.25;;;;;;;;;;5013044;28;20030;-73
2022/02/20 02:03:38;;;;;;;6.47;2.20;;;;;;;;;;5014042;28;20049;-72
2022/02/20 02:06:06;;;;;;;3.85;2.10;;;;;;;;;;5020102;28;20022;-74
2022/02/20 02:08:32;;;;;;;4.75;2.30;;;;;;;;;;5014341;28;20057;-73
2022/02/20 02:10:58;;;;;;;3.05;2.22;;;;;;;;;;5014158;28;20455;-72
2022/02/20 02:13:27;;;;;;;5.13;2.60;;;;;;;;;;5019607;28;20033;-74
2022/02/20 02:15:54;;;;;;;6.13;2.38;;;;;;;;;;5014935;28;20053;-73
2022/02/20 02:18:21;;;;;;;4.75;2.33;;;;;;;;;;5014162;28;20093;-74
2022/02/20 02:20:47;;;;;;;5.15;2.30;;;;;;;;;;5019795;28;20092;-74
2022/02/20 02:23:17;;;;;;;5.60;2.50;;;;;;;;;;5014994;28;20029;-73
2022/02/20 02:25:44;;;;;;;5.13;2.30;;;;;;;;;;5013494;28;20032;-72
2022/02/20 02:28:10;;;;;;;6.22;2.25;;;;;;;;;;5013650;28;20037;-75
2022/02/20 02:30:41;;;;;;;7.30;2.90;;;;;;;;;;5016121;28;20030;-75
2022/02/20 02:33:10;;;;;;;6.30;3.13;;;;;;;;;;5021956;28;20038;-75
2022/02/20 02:35:36;;;;;;;8.90;2.80;;;;;;;;;;5012672;28;20049;-74
2022/02/20 02:38:04;;;;;;;7.22;2.60;;;;;;;;;;5013755;28;20061;-73
2022/02/20 02:40:31;;;;;;;7.97;3.40;;;;;;;;;;5014295;28;20037;-75
2022/02/20 02:42:57;;;;;;;6.93;3.35;;;;;;;;;;5014869;28;20111;-74
2022/02/20 02:45:27;;;;;;;4.55;2.67;;;;;;;;;;5013637;28;20022;-72
2022/02/20 02:47:53;;;;;;;3.97;2.45;;;;;;;;;;4995411;28;20038;-75
2022/02/20 02:50:19;;;;;;;6.97;2.45;;;;;;;;;;5017976;28;20041;-75
2022/02/20 02:52:48;;;;;;;5.72;2.50;;;;;;;;;;4977566;28;20032;-74
2022/02/20 02:55:14;;;;;;;6.78;2.47;;;;;;;;;;5002527;28;20026;-74
2022/02/20 02:57:40;;;;;;;6.07;2.40;;;;;;;;;;5013231;28;20034;-74
2022/02/20 03:00:07;;;;;;;4.75;2.17;;;;;;;;;;5012731;28;20038;-73
2022/02/20 03:02:33;;;;;;;4.07;2.30;;;;;;;;;;5013516;28;20132;-74
2022/02/20 03:05:03;;;;;;;5.43;2.28;;;;;;;;;;5013694;28;20475;-72
2022/02/20 03:07:30;;;;;;;5.63;2.30;;;;;;;;;;5015251;28;20018;-75
2022/02/20 03:09:59;;;;;;;4.18;2.20;;;;;;;;;;4976094;28;20034;-73
2022/02/20 03:12:25;;;;;;;4.35;2.42;;;;;;;;;;4999633;28;20514;-74
2022/02/20 03:14:53;;;;;;;6.55;2.35;;;;;;;;;;5013024;28;20033;-72
2022/02/20 03:17:20;;;;;;;5.00;2.38;;;;;;;;;;5012827;28;20062;-74
2022/02/20 03:19:46;;;;;;;7.47;2.08;;;;;;;;;;5014694;28;20038;-75
2022/02/20 03:22:12;;;;;;;6.40;2.60;;;;;;;;;;5013085;28;20018;-72
2022/02/20 03:24:38;;;;;;;5.30;2.50;;;;;;;;;;5018885;28;20052;-75
2022/02/20 03:27:04;;;;;;;8.63;4.07;;;;;;;;;;5012758;28;20440;-74
2022/02/20 03:29:33;;;;;;;8.05;4.30;;;;;;;;;;5016090;28;20101;-75
2022/02/20 03:31:59;;;;;;;10.68;5.57;;;;;;;;;;4995462;28;20026;-72
2022/02/20 03:34:25;;;;;;;8.35;3.03;;;;;;;;;;5012739;28;20034;-74
2022/02/20 03:36:51;;;;;;;21.85;11.07;;;;;;;;;;5012987;28;20511;-74
2022/02/20 03:39:18;;;;;;;12.40;6.38;;;;;;;;;;5011743;28;20058;-74
2022/02/20 03:41:44;;;;;;;8.32;4.40;;;;;;;;;;5003665;28;20472;-73
2022/02/20 03:44:10;;;;;;;7.03;3.90;;;;;;;;;;5012513;28;20039;-74
2022/02/20 03:46:36;;;;;;;6.47;3.30;;;;;;;;;;5013403;28;20057;-74
2022/02/20 03:49:03;;;;;;;6.40;3.50;;;;;;;;;;5022712;28;20025;-74
2022/02/20 03:51:29;;;;;;;8.63;3.40;;;;;;;;;;4998939;28;20499;-73
2022/02/20 03:53:55;;;;;;;5.82;3.03;;;;;;;;;;5003358;28;20030;-73
2022/02/20 03:56:33;;;;;;;4.03;2.70;;;;;;;;;;5001672;28;20022;-75
2022/02/20 03:58:59;;;;;;;11.90;4.93;;;;;;;;;;5015726;28;20026;-75
2022/02/20 04:01:25;;;;;;;6.63;2.97;;;;;;;;;;5016744;28;20030;-74
2022/02/20 04:03:51;;;;;;;4.65;2.38;;;;;;;;;;5026172;28;20088;-75
2022/02/20 04:06:17;;;;;;;8.10;3.17;;;;;;;;;;5016677;28;20025;-72
2022/02/20 04:08:44;;;;;;;7.07;2.50;;;;;;;;;;5016563;28;20025;-75
2022/02/20 04:11:10;;;;;;;5.00;2.42;;;;;;;;;;5016400;28;20502;-74
2022/02/20 04:13:37;;;;;;;7.28;2.70;;;;;;;;;;5016554;28;20113;-74
2022/02/20 04:16:04;;;;;;;7.32;2.67;;;;;;;;;;5016392;28;20038;-74
2022/02/20 04:18:30;;;;;;;4.53;2.47;;;;;;;;;;5020455;28;20040;-75
2022/02/20 04:20:56;;;;;;;5.43;2.50;;;;;;;;;;4998531;28;20125;-74
2022/02/20 04:23:23;;;;;;;4.28;2.83;;;;;;;;;;5016081;28;20029;-72
2022/02/20 04:25:49;;;;;;;6.38;2.50;;;;;;;;;;5021560;28;20478;-74
2022/02/20 04:28:16;;;;;;;5.90;2.47;;;;;;;;;;4995283;28;20061;-74
2022/02/20 04:30:42;;;;;;;5.72;2.53;;;;;;;;;;5015933;28;20018;-72
2022/02/20 04:33:08;;;;;;;67.40;32.33;;;;;;;;;;5016156;28;20026;-72
2022/02/20 04:35:34;;;;;;;59.72;38.10;;;;;;;;;;5011756;28;20033;-74
2022/02/20 04:38:00;;;;;;;7.85;3.63;;;;;;;;;;5015670;28;20038;-74
2022/02/20 04:40:26;;;;;;;6.57;4.03;;;;;;;;;;5015430;28;20399;-74
2022/02/20 04:42:52;;;;;;;4.82;3.40;;;;;;;;;;5015930;28;20073;-74
2022/02/20 04:45:19;;;;;;;4.68;2.65;;;;;;;;;;5015865;28;20022;-73
2022/02/20 04:47:45;;;;;;;4.63;2.30;;;;;;;;;;5016069;28;20036;-74
2022/02/20 04:50:13;;;;;;;2.67;2.10;;;;;;;;;;5015500;28;20022;-72
2022/02/20 04:52:39;;;;;;;4.45;2.10;;;;;;;;;;5015705;28;20781;-74
2022/02/20 04:55:06;;;;;;;5.03;2.10;;;;;;;;;;5015702;28;20029;-74
2022/02/20 04:57:39;;;;;;;3.97;2.10;;;;;;;;;;5020206;28;20104;-73
2022/02/20 05:00:06;;;;;;;3.03;2.03;;;;;;;;;;4996915;28;20487;-74
2022/02/20 05:02:33;;;;;;;2.47;2.05;;;;;;;;;;5019934;28;20372;-75
2022/02/20 05:05:00;;;;;;;3.63;2.30;;;;;;;;;;5021135;28;20037;-72
2022/02/20 05:07:26;;;;;;;5.40;2.85;;;;;;;;;;5014627;28;20042;-72
2022/02/20 05:09:52;;;;;;;6.32;2.65;;;;;;;;;;5014998;28;20026;-74
2022/02/20 05:12:18;;;;;;;6.07;3.20;;;;;;;;;;5014956;28;20022;-74
2022/02/20 05:14:44;;;;;;;7.97;2.95;;;;;;;;;;5015429;28;20037;-75
2022/02/20 05:17:12;;;;;;;6.60;2.78;;;;;;;;;;5014671;28;20111;-73
2022/02/20 05:19:39;;;;;;;6.00;2.90;;;;;;;;;;5014662;28;20048;-73
2022/02/20 05:22:05;;;;;;;7.45;2.95;;;;;;;;;;5015060;28;20026;-72
2022/02/20 05:24:31;;;;;;;4.60;2.70;;;;;;;;;;5015144;28;20026;-74
2022/02/20 05:26:57;;;;;;;3.58;2.60;;;;;;;;;;5014098;28;20395;-72
2022/02/20 05:29:23;;;;;;;8.65;2.92;;;;;;;;;;5014641;28;20030;-73
2022/02/20 05:31:49;;;;;;;5.35;2.95;;;;;;;;;;5028421;28;20032;-73
2022/02/20 05:34:15;;;;;;;6.10;2.70;;;;;;;;;;4997711;28;20033;-75
2022/02/20 05:36:41;;;;;;;6.90;2.88;;;;;;;;;;5007410;28;20036;-74
2022/02/20 05:39:07;;;;;;;6.07;2.80;;;;;;;;;;4994878;28;20053;-72
2022/02/20 05:41:33;;;;;;;7.40;2.85;;;;;;;;;;4995812;28;20054;-72
2022/02/20 05:44:00;;;;;;;3.60;2.75;;;;;;;;;;5002541;28;20125;-73
2022/02/20 05:46:26;;;;;;;7.72;3.50;;;;;;;;;;4994646;28;20035;-72
2022/02/20 05:48:52;;;;;;;7.20;3.00;;;;;;;;;;4994040;28;20018;-72
2022/02/20 05:51:18;;;;;;;4.03;2.40;;;;;;;;;;4993836;28;20531;-75
2022/02/20 05:53:44;;;;;;;4.32;2.35;;;;;;;;;;4975789;28;20030;-74
2022/02/20 05:56:10;;;;;;;7.43;2.50;;;;;;;;;;4985406;28;20022;-74
2022/02/20 05:58:37;;;;;;;7.63;2.47;;;;;;;;;;4976952;28;20026;-74
2022/02/20 06:01:03;;;;;;;4.75;2.38;;;;;;;;;;4984816;28;20038;-74
2022/02/20 06:03:29;;;;;;;6.97;2.60;;;;;;;;;;4980625;28;20092;-73
2022/02/20 06:05:55;;;;;;;6.20;2.40;;;;;;;;;;4993732;28;20357;-73
2022/02/20 06:08:21;;;;;;;7.10;2.80;;;;;;;;;;4994175;28;20030;-74
2022/02/20 06:10:47;;;;;;;7.38;4.13;;;;;;;;;;4992949;28;20053;-72
2022/02/20 06:13:20;;;;;;;5.68;2.80;;;;;;;;;;4996468;28;20023;-75
2022/02/20 06:15:49;;;;;;;4.22;2.50;;;;;;;;;;4981209;28;20062;-76
2022/02/20 06:18:17;;;;;;;5.68;2.75;;;;;;;;;;4998522;28;20030;-75
2022/02/20 06:20:43;;;;;;;6.13;2.72;;;;;;;;;;4976315;28;20501;-75
2022/02/20 06:23:09;;;;;;;4.07;2.40;;;;;;;;;;4992758;28;20030;-75
2022/02/20 06:25:37;;;;;;;7.43;2.88;;;;;;;;;;4994042;28;20037;-75
2022/02/20 06:28:05;;;;;;;4.93;2.80;;;;;;;;;;4990152;28;20407;-73
2022/02/20 06:30:31;;;;;;;5.88;2.55;;;;;;;;;;4995688;28;20022;-73
2022/02/20 06:32:57;;;;;;;4.00;2.53;;;;;;;;;;4991966;28;20022;-72
2022/02/20 06:35:23;;;;;;;7.03;2.60;;;;;;;;;;4992301;28;20054;-74
2022/02/20 06:37:49;;;;;;;4.13;2.33;;;;;;;;;;4995588;28;20450;-73
2022/02/20 06:40:15;;;;;;;7.40;3.40;;;;;;;;;;5011715;28;20056;-73
2022/02/20 06:42:41;;;;;;;7.30;3.30;;;;;;;;;;5007178;28;20440;-75
2022/02/20 06:45:08;;;;;;;6.60;2.85;;;;;;;;;;5009977;28;20120;-74
2022/02/20 06:47:34;;;;;;;5.68;2.20;;;;;;;;;;5011858;28;20058;-75
2022/02/20 06:50:01;;;;;;;10.40;2.85;;;;;;;;;;5015355;28;20514;-77
2022/02/20 06:52:39;;;;;;;7.15;2.70;;;;;;;;;;5022339;28;20057;-76
2022/02/20 06:55:11;;;;;;;5.05;3.00;;;;;;;;;;5020235;28;20040;-76
2022/02/20 06:57:37;;;;;;;10.65;4.90;;;;;;;;;;5000793;28;20092;-74
2022/02/20 07:00:10;;;;;;;8.45;4.95;;;;;;;;;;5011950;28;20034;-72
2022/02/20 07:02:38;;;;;;;10.75;5.88;;;;;;;;;;5015002;28;20045;-78
2022/02/20 07:05:05;;;;;;;15.30;7.97;;;;;;;;;;5024898;28;20057;-74
2022/02/20 07:07:31;;;;;;;20.27;10.55;;;;;;;;;;5027273;28;20120;-72
2022/02/20 07:10:00;;;;;;;14.20;7.07;;;;;;;;;;5010396;28;20380;-72
2022/02/20 07:12:26;;;;;;;30.38;11.75;;;;;;;;;;5027616;28;20026;-73
2022/02/20 07:14:52;;;;;;;40.55;17.30;;;;;;;;;;5024459;28;20036;-73
2022/02/20 07:17:19;;;;;;;36.00;15.68;;;;;;;;;;5018975;28;20057;-74
2022/02/20 07:19:45;;;;;;;32.00;15.18;;;;;;;;;;5016960;28;20037;-73
2022/02/20 07:22:11;;;;;;;39.45;17.67;;;;;;;;;;5013539;28;20040;-73
2022/02/20 07:24:38;;;;;;;38.95;21.98;;;;;;;;;;5008420;28;20439;-75
2022/02/20 07:27:04;;;;;;;22.67;13.80;;;;;;;;;;5001624;28;20014;-71
2022/02/20 07:29:30;;;;;;;17.77;10.98;;;;;;;;;;5005295;28;20026;-71
2022/02/20 07:31:56;;;;;;;13.77;7.50;;;;;;;;;;5013949;28;20032;-73
2022/02/20 07:34:24;;;;;;;15.27;7.75;;;;;;;;;;5012771;28;20014;-71
2022/02/20 07:36:52;;;;;;;20.20;12.25;;;;;;;;;;4995112;28;20096;-72
2022/02/20 07:39:18;;;;;;;20.35;12.02;;;;;;;;;;5011521;28;20503;-73
2022/02/20 07:41:44;;;;;;;20.15;10.88;;;;;;;;;;5010327;28;20044;-71
2022/02/20 07:44:11;;;;;;;15.73;9.68;;;;;;;;;;5011919;28;20026;-71
2022/02/20 07:46:37;;;;;;;11.57;7.40;;;;;;;;;;5007872;28;20057;-72
2022/02/20 07:49:04;;;;;;;14.90;6.97;;;;;;;;;;5011553;28;20057;-72
2022/02/20 07:51:31;;;;;;;8.52;5.32;;;;;;;;;;5015148;28;20041;-75
2022/02/20 07:53:58;;;;;;;12.38;6.60;;;;;;;;;;5016820;28;20117;-75
2022/02/20 07:56:25;;;;;;;10.27;5.65;;;;;;;;;;5019036;28;20028;-75
2022/02/20 07:58:51;;;;;;;9.55;5.63;;;;;;;;;;4989943;28;20034;-75
2022/02/20 08:01:17;;;;;;;7.82;4.50;;;;;;;;;;5015536;28;20042;-77
2022/02/20 08:03:45;;;;;;;6.68;4.25;;;;;;;;;;4996806;28;20120;-75
2022/02/20 08:06:11;;;;;;;7.75;4.43;;;;;;;;;;4998955;28;20418;-71
2022/02/20 08:08:37;;;;;;;8.65;4.65;;;;;;;;;;5010838;28;20525;-72
2022/02/20 08:11:04;;;;;;;9.00;4.28;;;;;;;;;;4983752;28;20030;-74
2022/02/20 08:13:30;;;;;;;12.57;5.72;;;;;;;;;;4991530;28;20057;-75
2022/02/20 08:15:57;;;;;;;22.35;10.63;;;;;;;;;;5011863;28;20443;-75
2022/02/20 08:18:38;;;;;;;;;;;;;;;;;;;;;
2022/02/20 08:21:04;;;;;;;25.92;19.88;;;;;;;;;;5002429;28;20045;-74
2022/02/20 08:23:30;;;;;;;11.90;7.25;;;;;;;;;;5012472;28;20030;-73
2022/02/20 08:25:56;;;;;;;12.18;6.30;;;;;;;;;;5005171;28;20030;-73
2022/02/20 08:28:22;;;;;;;11.23;6.88;;;;;;;;;;5009771;28;20033;-73
2022/02/20 08:30:51;;;;;;;10.75;7.00;;;;;;;;;;5020608;28;20058;-74
2022/02/20 08:33:20;;;;;;;13.63;6.97;;;;;;;;;;5007187;28;20117;-73
2022/02/20 08:35:50;;;;;;;15.65;7.55;;;;;;;;;;5026209;28;20545;-72
2022/02/20 08:38:21;;;;;;;10.38;5.50;;;;;;;;;;5019617;28;20099;-75
2022/02/20 08:40:52;;;;;;;13.50;6.75;;;;;;;;;;5016125;28;20096;-73
2022/02/20 08:43:20;;;;;;;325.25;117.70;;;;;;;;;;4995736;28;20034;-74
2022/02/20 08:45:48;;;;;;;38.00;19.23;;;;;;;;;;4999063;28;20056;-74
2022/02/20 08:48:16;;;;;;;115.05;63.58;;;;;;;;;;5013494;28;20027;-75
2022/02/20 08:50:42;;;;;;;199.73;148.13;;;;;;;;;;4997649;28;20052;-75
2022/02/20 08:53:12;;;;;;;41.95;37.17;;;;;;;;;;5012120;28;20022;-75
2022/02/20 08:55:38;;;;;;;24.15;21.80;;;;;;;;;;5012969;28;20033;-75
2022/02/20 08:58:06;;;;;;;8.52;6.43;;;;;;;;;;5012908;28;20030;-76
2022/02/20 09:00:37;;;;;;;8.45;4.70;;;;;;;;;;5002493;28;20037;-72
2022/02/20 09:03:04;;;;;;;7.07;5.05;;;;;;;;;;5019746;28;20068;-74
2022/02/20 09:05:31;;;;;;;7.07;4.40;;;;;;;;;;5011004;28;20036;-73
2022/02/20 09:07:57;;;;;;;10.27;5.07;;;;;;;;;;4990413;28;20022;-73
2022/02/20 09:10:30;;;;;;;9.60;5.70;;;;;;;;;;4977526;28;20038;-74
2022/02/20 09:12:58;;;;;;;9.48;5.25;;;;;;;;;;4973814;28;20035;-69
2022/02/20 09:15:27;;;;;;;10.25;4.82;;;;;;;;;;4972319;28;20082;-76
2022/02/20 09:18:02;;;;;;;9.68;5.18;;;;;;;;;;4957673;28;20059;-75
2022/02/20 09:20:33;;;;;;;9.40;5.10;;;;;;;;;;4957713;28;20038;-73
2022/02/20 09:23:00;;;;;;;17.15;6.43;;;;;;;;;;4956751;28;20049;-73
2022/02/20 09:25:33;;;;;;;8.52;5.43;;;;;;;;;;4973839;28;20039;-71
2022/02/20 09:27:59;;;;;;;9.43;5.50;;;;;;;;;;4956919;28;20022;-73
2022/02/20 09:30:25;;;;;;;9.18;4.95;;;;;;;;;;4973734;28;20109;-72
2022/02/20 09:32:58;;;;;;;13.75;7.95;;;;;;;;;;4985119;28;20094;-71
2022/02/20 09:35:26;;;;;;;15.37;8.23;;;;;;;;;;4964981;28;20035;-74
2022/02/20 09:37:53;;;;;;;14.40;9.23;;;;;;;;;;4965772;28;20053;-75
2022/02/20 09:40:25;;;;;;;8.45;4.90;;;;;;;;;;5001205;28;20022;-72
2022/02/20 09:42:54;;;;;;;11.10;5.60;;;;;;;;;;5014021;28;20038;-72
2022/02/20 09:45:20;;;;;;;17.63;13.60;;;;;;;;;;5007200;28;20030;-72
2022/02/20 09:47:46;;;;;;;27.73;18.30;;;;;;;;;;5010009;28;20491;-73
2022/02/20 09:50:13;;;;;;;18.10;12.68;;;;;;;;;;5001712;28;20148;-75
2022/02/20 09:52:39;;;;;;;18.98;12.43;;;;;;;;;;5022442;28;20029;-75
2022/02/20 09:55:06;;;;;;;19.85;12.38;;;;;;;;;;5044247;28;20474;-73
2022/02/20 09:57:40;;;;;;;11.48;6.85;;;;;;;;;;5012042;28;20053;-75
2022/02/20 10:00:13;;;;;;;12.40;7.07;;;;;;;;;;5024560;28;20029;-74
2022/02/20 10:02:42;;;;;;;12.20;6.75;;;;;;;;;;5007176;28;20030;-75
2022/02/20 10:05:22;;;;;;;21.48;16.00;;;;;;;;;;5020283;28;20172;-78
2022/02/20 10:07:48;;;;;;;16.98;10.40;;;;;;;;;;5013311;28;20109;-79
2022/02/20 10:10:20;;;;;;;12.45;8.18;;;;;;;;;;5025933;28;20036;-77
2022/02/20 10:12:50;;;;;;;12.65;6.63;;;;;;;;;;5011881;28;21046;-73
2022/02/20 10:15:32;;;;;;;13.63;8.27;;;;;;;;;;5013827;28;20054;-75
2022/02/20 10:18:19;;;;;;;25.63;15.35;;;;;;;;;;5012872;28;20155;-76
2022/02/20 10:20:47;;;;;;;29.30;21.30;;;;;;;;;;5012156;28;20045;-76
2022/02/20 10:23:14;;;;;;;24.65;16.25;;;;;;;;;;5013723;28;20033;-72
2022/02/20 10:25:40;;;;;;;12.95;8.98;;;;;;;;;;5016875;28;20021;-76
2022/02/20 10:28:07;;;;;;;11.80;7.05;;;;;;;;;;5016198;28;20026;-76
2022/02/20 10:30:34;;;;;;;15.30;7.20;;;;;;;;;;5015267;28;20029;-73
2022/02/20 10:33:06;;;;;;;14.85;7.28;;;;;;;;;;5014306;28;20022;-74
2022/02/20 10:35:36;;;;;;;14.65;5.63;;;;;;;;;;5012877;28;20505;-77
2022/02/20 10:38:10;;;;;;;10.88;5.80;;;;;;;;;;5009665;28;20504;-76
2022/02/20 10:40:36;;;;;;;28.50;19.48;;;;;;;;;;5010521;28;20029;-75
2022/02/20 10:43:04;;;;;;;6.93;3.72;;;;;;;;;;5012559;28;20064;-75
2022/02/20 10:45:39;;;;;;;8.25;3.83;;;;;;;;;;5018742;28;20093;-78
2022/02/20 10:48:15;;;;;;;15.75;8.48;;;;;;;;;;5012289;28;20082;-76
2022/02/20 10:50:48;;;;;;;29.88;15.20;;;;;;;;;;5022864;28;20030;-76
2022/02/20 10:53:19;;;;;;;37.88;16.15;;;;;;;;;;5026104;28;20030;-78
2022/02/20 10:55:48;;;;;;;24.73;10.45;;;;;;;;;;5021097;28;20026;-76
2022/02/20 10:58:19;;;;;;;18.65;8.70;;;;;;;;;;5013846;28;20476;-75
2022/02/20 11:00:52;;;;;;;21.83;9.60;;;;;;;;;;5011816;28;20057;-76
2022/02/20 11:03:24;;;;;;;19.52;5.07;;;;;;;;;;5018546;28;20029;-72
2022/02/20 11:05:52;;;;;;;18.13;7.40;;;;;;;;;;4999167;28;20038;-72
2022/02/20 11:08:35;;;;;;;27.13;10.45;;;;;;;;;;5018711;28;20018;-77
2022/02/20 11:11:36;;;;;;;24.20;10.85;;;;;;;;;;4988676;28;20037;-77
2022/02/20 11:13:50;;;;;;;22.35;10.98;;;;;;;;;;5023956;28;20037;-78
2022/02/20 11:16:17;;;;;;;44.65;32.08;;;;;;;;;;5020795;28;20021;-76
2022/02/20 11:18:44;;;;;;;17.50;12.27;;;;;;;;;;5019693;28;20434;-77
2022/02/20 11:21:10;;;;;;;22.92;11.68;;;;;;;;;;5019669;28;20049;-76
2022/02/20 11:23:37;;;;;;;14.60;9.10;;;;;;;;;;5021874;28;20533;-74
2022/02/20 11:26:04;;;;;;;22.80;12.10;;;;;;;;;;5020159;28;20807;-75
2022/02/20 11:28:31;;;;;;;19.77;10.98;;;;;;;;;;5015072;28;20018;-76
2022/02/20 11:30:57;;;;;;;19.65;8.75;;;;;;;;;;5014059;28;20032;-76
2022/02/20 11:33:24;;;;;;;12.93;5.70;;;;;;;;;;5016191;28;20033;-77
2022/02/20 11:35:52;;;;;;;13.70;6.18;;;;;;;;;;5018015;28;20102;-74
2022/02/20 11:38:19;;;;;;;19.15;7.38;;;;;;;;;;5010969;28;20046;-76
2022/02/20 11:40:53;;;;;;;27.65;13.02;;;;;;;;;;5013665;28;20036;-74
2022/02/20 11:43:20;;;;;;;15.00;7.18;;;;;;;;;;5014875;28;20026;-77
2022/02/20 11:46:01;;;;;;;15.38;5.53;;;;;;;;;;5013549;28;20037;-75
2022/02/20 11:48:28;;;;;;;27.48;17.55;;;;;;;;;;5010131;28;20023;-73
2022/02/20 11:50:55;;;;;;;9.65;5.43;;;;;;;;;;4990694;28;20022;-74
2022/02/20 11:53:28;;;;;;;10.00;4.88;;;;;;;;;;5000832;28;20034;-74
2022/02/20 11:56:04;;;;;;;7.68;4.03;;;;;;;;;;5017409;28;20534;-75
2022/02/20 11:58:30;;;;;;;7.20;3.75;;;;;;;;;;5010918;28;20030;-75
2022/02/20 12:01:03;;;;;;;8.07;3.97;;;;;;;;;;5013592;28;20033;-74
2022/02/20 12:03:49;;;;;;;10.23;6.38;;;;;;;;;;4995378;28;20061;-71
2022/02/20 12:06:37;;;;;;;7.68;4.57;;;;;;;;;;4993431;28;20030;-79
2022/02/20 12:09:05;;;;;;;7.00;3.58;;;;;;;;;;4956182;28;20424;-77
2022/02/20 12:11:44;;;;;;;8.00;3.80;;;;;;;;;;4958836;28;20111;-78
2022/02/20 12:14:14;;;;;;;8.48;4.38;;;;;;;;;;4939846;28;20035;-75
2022/02/20 12:16:41;;;;;;;7.70;5.00;;;;;;;;;;4956117;28;20536;-76
2022/02/20 12:19:15;;;;;;;9.90;4.15;;;;;;;;;;4958278;28;20062;-76
2022/02/20 12:21:51;;;;;;;9.50;4.78;;;;;;;;;;4950810;29;20055;-75
2022/02/20 12:24:18;;;;;;;8.32;4.85;;;;;;;;;;4959043;28;20110;-73
2022/02/20 12:26:47;;;;;;;7.68;4.18;;;;;;;;;;4966196;29;20030;-72
2022/02/20 12:29:15;;;;;;;11.77;5.28;;;;;;;;;;4948828;29;20086;-77
2022/02/20 12:31:59;;;;;;;10.50;5.93;;;;;;;;;;4972565;29;20027;-78
2022/02/20 12:34:44;;;;;;;7.25;4.30;;;;;;;;;;4963560;29;20039;-76
2022/02/20 12:37:11;;;;;;;13.45;4.55;;;;;;;;;;4940344;29;20077;-77
2022/02/20 12:39:38;;;;;;;10.55;5.18;;;;;;;;;;4963327;29;20055;-73
2022/02/20 12:42:05;;;;;;;13.10;4.47;;;;;;;;;;4957891;28;20027;-73
2022/02/20 12:44:31;;;;;;;11.13;4.75;;;;;;;;;;4962143;28;20031;-75
2022/02/20 12:46:58;;;;;;;7.82;4.28;;;;;;;;;;5016489;28;20069;-76
2022/02/20 12:49:24;;;;;;;8.02;4.95;;;;;;;;;;5027154;28;20025;-77
2022/02/20 12:52:01;;;;;;;11.32;5.40;;;;;;;;;;5021656;28;20739;-77
2022/02/20 12:54:30;;;;;;;6.75;4.97;;;;;;;;;;5017220;28;20391;-76
2022/02/20 12:57:07;;;;;;;6.45;4.13;;;;;;;;;;5014409;28;20426;-73
2022/02/20 12:59:33;;;;;;;15.75;5.55;;;;;;;;;;5013893;28;20022;-74
2022/02/20 13:02:03;;;;;;;11.95;5.30;;;;;;;;;;5013245;28;20060;-74
2022/02/20 13:04:30;;;;;;;10.85;5.28;;;;;;;;;;5005256;28;20034;-73
2022/02/20 13:07:00;;;;;;;11.27;6.57;;;;;;;;;;5010950;28;20040;-76
2022/02/20 13:09:27;;;;;;;10.45;5.10;;;;;;;;;;5003474;28;20060;-73
2022/02/20 13:11:53;;;;;;;11.35;4.93;;;;;;;;;;5008643;28;20030;-75
2022/02/20 13:14:19;;;;;;;8.88;4.43;;;;;;;;;;5009003;28;20507;-75
2022/02/20 13:16:50;;;;;;;10.02;4.75;;;;;;;;;;4996657;28;20100;-72
2022/02/20 13:19:16;;;;;;;12.18;4.60;;;;;;;;;;5015166;28;20029;-73
2022/02/20 13:21:42;;;;;;;8.40;5.07;;;;;;;;;;5014427;28;20112;-70
2022/02/20 13:24:08;;;;;;;15.80;5.63;;;;;;;;;;5013060;28;20049;-70
2022/02/20 13:26:34;;;;;;;9.23;5.50;;;;;;;;;;5009452;28;20466;-71
2022/02/20 13:29:00;;;;;;;13.55;5.43;;;;;;;;;;5013264;28;20037;-70
2022/02/20 13:31:35;;;;;;;10.40;5.68;;;;;;;;;;5012680;28;20106;-72
2022/02/20 13:34:01;;;;;;;9.00;5.50;;;;;;;;;;4991904;28;20387;-75
2022/02/20 13:36:29;;;;;;;15.55;8.05;;;;;;;;;;5015189;28;20391;-76
2022/02/20 13:39:15;;;;;;;18.55;8.90;;;;;;;;;;5010007;28;20569;-73
2022/02/20 13:41:45;;;;;;;9.32;5.15;;;;;;;;;;5011135;28;20420;-72
2022/02/20 13:44:26;;;;;;;8.25;5.22;;;;;;;;;;5013833;28;20447;-72
2022/02/20 13:46:52;;;;;;;11.30;5.75;;;;;;;;;;5013142;28;20030;-73
2022/02/20 13:49:23;;;;;;;8.48;6.18;;;;;;;;;;5013710;28;20026;-72
2022/02/20 13:51:52;;;;;;;12.05;6.22;;;;;;;;;;5014119;28;20491;-72
2022/02/20 13:54:18;;;;;;;8.73;6.32;;;;;;;;;;5011435;28;20034;-73
2022/02/20 13:56:54;;;;;;;15.07;7.93;;;;;;;;;;5014523;28;20514;-72
2022/02/20 13:59:24;;;;;;;19.00;11.25;;;;;;;;;;5013934;28;20030;-75
2022/02/20 14:01:52;;;;;;;11.00;6.32;;;;;;;;;;4998323;28;20383;-72
2022/02/20 14:04:18;;;;;;;13.73;8.13;;;;;;;;;;4997285;28;20061;-75
2022/02/20 14:06:44;;;;;;;18.92;10.68;;;;;;;;;;5014968;28;20033;-74
2022/02/20 14:09:12;;;;;;;11.98;6.50;;;;;;;;;;5012148;28;20083;-73
2022/02/20 14:11:39;;;;;;;10.85;7.47;;;;;;;;;;5011741;28;20029;-73
2022/02/20 14:14:15;;;;;;;17.42;8.02;;;;;;;;;;5016475;28;20067;-73
2022/02/20 14:16:42;;;;;;;11.00;6.35;;;;;;;;;;5016721;28;20134;-73
2022/02/20 14:19:08;;;;;;;14.02;6.82;;;;;;;;;;5022710;28;20499;-74
2022/02/20 14:21:34;;;;;;;24.50;11.60;;;;;;;;;;5017137;28;20033;-73
2022/02/20 14:24:00;;;;;;;19.65;11.55;;;;;;;;;;5020406;28;20017;-74
2022/02/20 14:26:26;;;;;;;12.52;9.02;;;;;;;;;;5014127;28;20034;-77
2022/02/20 14:28:57;;;;;;;14.43;10.02;;;;;;;;;;5014581;28;20105;-74
2022/02/20 14:31:29;;;;;;;12.25;8.73;;;;;;;;;;5011284;28;20515;-72
2022/02/20 14:33:56;;;;;;;14.13;9.63;;;;;;;;;;4994883;28;20153;-72
2022/02/20 14:36:24;;;;;;;19.27;11.25;;;;;;;;;;5021469;28;20030;-75
2022/02/20 14:38:50;;;;;;;19.20;11.45;;;;;;;;;;5021800;28;20137;-76
2022/02/20 14:41:17;;;;;;;15.77;11.02;;;;;;;;;;5012792;28;20038;-71